sensor_id;sensor_type;location;lat;lon;timestamp;P1;durP1;ratioP1;P2;durP2;ratioP2
26040;SDS011;13816;53.628;9.950;2023-06-01T00:00:36;16.53;;;8.83;;
26040;SDS011;13816;53.628;9.950;2023-06-01T00:03:12;23.23;;;8.53;;
26040;SDS011;13816;53.628;9.950;2023-06-01T00:05:50;19.63;;;9.00;;
26040;SDS011;13816;53.628;9.950;2023-06-01T00:08:22;15.03;;;7.63;;
26040;SDS011;13816;53.628;9.950;2023-06-01T00:10:50;16.10;;;7.97;;
26040;SDS011;13816;53.628;9.950;2023-06-01T00:13:20;19.63;;;8.67;;
26040;SDS011;13816;53.628;9.950;2023-06-01T00:15:50;13.80;;;8.10;;
26040;SDS011;13816;53.628;9.950;2023-06-01T00:18:25;17.43;;;7.60;;
26040;SDS011;13816;53.628;9.950;2023-06-01T00:21:14;14.97;;;7.53;;
26040;SDS011;13816;53.628;9.950;2023-06-01T00:23:52;14.43;;;8.30;;
26040;SDS011;13816;53.628;9.950;2023-06-01T00:26:40;19.33;;;10.00;;
26040;SDS011;13816;53.628;9.950;2023-06-01T00:29:13;16.20;;;8.20;;
26040;SDS011;13816;53.628;9.950;2023-06-01T00:31:53;18.20;;;9.00;;
26040;SDS011;13816;53.628;9.950;2023-06-01T00:34:49;15.40;;;9.03;;
26040;SDS011;13816;53.628;9.950;2023-06-01T00:38:06;16.57;;;10.17;;
26040;SDS011;13816;53.628;9.950;2023-06-01T00:41:11;22.43;;;9.80;;
26040;SDS011;13816;53.628;9.950;2023-06-01T00:43:39;22.50;;;9.80;;
26040;SDS011;13816;53.628;9.950;2023-06-01T00:46:06;19.33;;;11.40;;
26040;SDS011;13816;53.628;9.950;2023-06-01T00:48:37;19.53;;;10.70;;
26040;SDS011;13816;53.628;9.950;2023-06-01T00:51:05;16.90;;;11.20;;
26040;SDS011;13816;53.628;9.950;2023-06-01T00:53:34;17.87;;;12.37;;
26040;SDS011;13816;53.628;9.950;2023-06-01T00:56:04;20.63;;;10.27;;
26040;SDS011;13816;53.628;9.950;2023-06-01T00:58:31;19.47;;;11.20;;
26040;SDS011;13816;53.628;9.950;2023-06-01T01:01:03;15.27;;;9.23;;
26040;SDS011;13816;53.628;9.950;2023-06-01T01:03:34;20.10;;;9.60;;
26040;SDS011;13816;53.628;9.950;2023-06-01T01:06:10;23.83;;;9.30;;
26040;SDS011;13816;53.628;9.950;2023-06-01T01:08:49;17.33;;;8.07;;
26040;SDS011;13816;53.628;9.950;2023-06-01T01:11:21;22.13;;;8.70;;
26040;SDS011;13816;53.628;9.950;2023-06-01T01:16:34;14.97;;;7.77;;
26040;SDS011;13816;53.628;9.950;2023-06-01T01:21:37;22.43;;;7.60;;
26040;SDS011;13816;53.628;9.950;2023-06-01T01:26:51;22.97;;;6.60;;
26040;SDS011;13816;53.628;9.950;2023-06-01T01:29:23;17.57;;;7.00;;
26040;SDS011;13816;53.628;9.950;2023-06-01T01:31:51;17.97;;;7.10;;
26040;SDS011;13816;53.628;9.950;2023-06-01T01:34:19;16.17;;;7.30;;
26040;SDS011;13816;53.628;9.950;2023-06-01T01:36:48;19.77;;;7.37;;
26040;SDS011;13816;53.628;9.950;2023-06-01T01:39:19;22.90;;;7.40;;
26040;SDS011;13816;53.628;9.950;2023-06-01T01:41:52;22.53;;;9.30;;
26040;SDS011;13816;53.628;9.950;2023-06-01T01:44:23;11.80;;;7.77;;
26040;SDS011;13816;53.628;9.950;2023-06-01T01:49:40;17.23;;;9.37;;
26040;SDS011;13816;53.628;9.950;2023-06-01T01:52:16;30.80;;;9.23;;
26040;SDS011;13816;53.628;9.950;2023-06-01T01:54:53;19.83;;;9.80;;
26040;SDS011;13816;53.628;9.950;2023-06-01T01:57:26;16.73;;;8.30;;
26040;SDS011;13816;53.628;9.950;2023-06-01T02:00:06;19.30;;;9.90;;
26040;SDS011;13816;53.628;9.950;2023-06-01T02:02:49;11.50;;;8.10;;
26040;SDS011;13816;53.628;9.950;2023-06-01T02:05:17;13.30;;;8.77;;
26040;SDS011;13816;53.628;9.950;2023-06-01T02:07:45;24.77;;;10.40;;
26040;SDS011;13816;53.628;9.950;2023-06-01T02:10:17;23.03;;;9.87;;
26040;SDS011;13816;53.628;9.950;2023-06-01T02:12:45;14.13;;;8.90;;
26040;SDS011;13816;53.628;9.950;2023-06-01T02:15:16;21.40;;;8.63;;
26040;SDS011;13816;53.628;9.950;2023-06-01T02:18:03;21.00;;;7.90;;
26040;SDS011;13816;53.628;9.950;2023-06-01T02:20:41;20.43;;;8.00;;
26040;SDS011;13816;53.628;9.950;2023-06-01T02:23:39;23.60;;;8.63;;
26040;SDS011;13816;53.628;9.950;2023-06-01T02:26:19;18.20;;;7.60;;
26040;SDS011;13816;53.628;9.950;2023-06-01T02:28:57;19.07;;;7.87;;
26040;SDS011;13816;53.628;9.950;2023-06-01T02:31:27;15.20;;;7.50;;
26040;SDS011;13816;53.628;9.950;2023-06-01T02:34:18;12.93;;;7.00;;
26040;SDS011;13816;53.628;9.950;2023-06-01T02:36:56;15.57;;;7.53;;
26040;SDS011;13816;53.628;9.950;2023-06-01T02:43:03;21.03;;;8.13;;
26040;SDS011;13816;53.628;9.950;2023-06-01T02:45:45;15.27;;;8.50;;
26040;SDS011;13816;53.628;9.950;2023-06-01T02:48:47;17.43;;;7.03;;
26040;SDS011;13816;53.628;9.950;2023-06-01T02:51:25;16.93;;;7.67;;
26040;SDS011;13816;53.628;9.950;2023-06-01T02:55:05;18.23;;;8.63;;
26040;SDS011;13816;53.628;9.950;2023-06-01T02:58:03;21.00;;;8.80;;
26040;SDS011;13816;53.628;9.950;2023-06-01T03:00:57;20.60;;;9.40;;
26040;SDS011;13816;53.628;9.950;2023-06-01T03:03:50;17.87;;;8.20;;
26040;SDS011;13816;53.628;9.950;2023-06-01T03:06:28;18.80;;;8.10;;
26040;SDS011;13816;53.628;9.950;2023-06-01T03:13:07;23.67;;;8.47;;
26040;SDS011;13816;53.628;9.950;2023-06-01T03:15:40;18.13;;;7.10;;
26040;SDS011;13816;53.628;9.950;2023-06-01T03:18:34;16.73;;;6.40;;
26040;SDS011;13816;53.628;9.950;2023-06-01T03:21:13;17.50;;;6.80;;
26040;SDS011;13816;53.628;9.950;2023-06-01T03:23:53;15.27;;;6.50;;
26040;SDS011;13816;53.628;9.950;2023-06-01T03:26:23;13.40;;;6.67;;
26040;SDS011;13816;53.628;9.950;2023-06-01T03:29:18;14.20;;;5.40;;
26040;SDS011;13816;53.628;9.950;2023-06-01T03:31:54;20.17;;;6.30;;
26040;SDS011;13816;53.628;9.950;2023-06-01T03:34:49;17.67;;;6.20;;
26040;SDS011;13816;53.628;9.950;2023-06-01T03:37:26;21.87;;;7.23;;
26040;SDS011;13816;53.628;9.950;2023-06-01T03:40:06;15.37;;;7.83;;
26040;SDS011;13816;53.628;9.950;2023-06-01T03:42:49;24.67;;;9.90;;
26040;SDS011;13816;53.628;9.950;2023-06-01T03:48:46;16.37;;;8.47;;
26040;SDS011;13816;53.628;9.950;2023-06-01T03:55:05;17.43;;;8.10;;
26040;SDS011;13816;53.628;9.950;2023-06-01T03:58:02;12.57;;;7.33;;
26040;SDS011;13816;53.628;9.950;2023-06-01T04:00:49;14.67;;;6.70;;
26040;SDS011;13816;53.628;9.950;2023-06-01T04:04:03;20.43;;;7.63;;
26040;SDS011;13816;53.628;9.950;2023-06-01T04:06:53;18.47;;;6.73;;
26040;SDS011;13816;53.628;9.950;2023-06-01T04:10:00;10.63;;;6.00;;
26040;SDS011;13816;53.628;9.950;2023-06-01T04:13:00;14.13;;;7.23;;
26040;SDS011;13816;53.628;9.950;2023-06-01T04:15:32;17.03;;;7.00;;
26040;SDS011;13816;53.628;9.950;2023-06-01T04:18:06;19.00;;;7.07;;
26040;SDS011;13816;53.628;9.950;2023-06-01T04:20:59;20.67;;;6.60;;
26040;SDS011;13816;53.628;9.950;2023-06-01T04:23:59;22.17;;;6.40;;
26040;SDS011;13816;53.628;9.950;2023-06-01T04:26:34;20.33;;;8.43;;
26040;SDS011;13816;53.628;9.950;2023-06-01T04:29:16;15.63;;;6.67;;
26040;SDS011;13816;53.628;9.950;2023-06-01T04:32:26;24.73;;;6.73;;
26040;SDS011;13816;53.628;9.950;2023-06-01T04:35:05;24.77;;;6.47;;
26040;SDS011;13816;53.628;9.950;2023-06-01T04:37:43;13.73;;;6.57;;
26040;SDS011;13816;53.628;9.950;2023-06-01T04:40:21;21.23;;;7.20;;
26040;SDS011;13816;53.628;9.950;2023-06-01T04:42:53;15.87;;;6.53;;
26040;SDS011;13816;53.628;9.950;2023-06-01T04:45:27;12.13;;;5.77;;
26040;SDS011;13816;53.628;9.950;2023-06-01T04:48:12;14.63;;;6.27;;
26040;SDS011;13816;53.628;9.950;2023-06-01T04:50:55;13.50;;;5.73;;
26040;SDS011;13816;53.628;9.950;2023-06-01T04:53:46;18.20;;;6.10;;
26040;SDS011;13816;53.628;9.950;2023-06-01T04:56:18;14.07;;;6.17;;
26040;SDS011;13816;53.628;9.950;2023-06-01T04:59:05;18.37;;;5.43;;
26040;SDS011;13816;53.628;9.950;2023-06-01T05:01:36;12.20;;;5.40;;
26040;SDS011;13816;53.628;9.950;2023-06-01T05:04:28;16.30;;;5.10;;
26040;SDS011;13816;53.628;9.950;2023-06-01T05:07:02;21.07;;;5.90;;
26040;SDS011;13816;53.628;9.950;2023-06-01T05:09:54;18.07;;;6.07;;
26040;SDS011;13816;53.628;9.950;2023-06-01T05:12:33;18.23;;;4.97;;
26040;SDS011;13816;53.628;9.950;2023-06-01T05:15:11;11.90;;;4.70;;
26040;SDS011;13816;53.628;9.950;2023-06-01T05:17:54;13.40;;;5.10;;
26040;SDS011;13816;53.628;9.950;2023-06-01T05:20:25;26.33;;;6.43;;
26040;SDS011;13816;53.628;9.950;2023-06-01T05:23:09;19.33;;;6.87;;
26040;SDS011;13816;53.628;9.950;2023-06-01T05:25:52;13.27;;;5.23;;
26040;SDS011;13816;53.628;9.950;2023-06-01T05:28:37;13.37;;;5.57;;
26040;SDS011;13816;53.628;9.950;2023-06-01T05:31:16;10.50;;;5.87;;
26040;SDS011;13816;53.628;9.950;2023-06-01T05:34:09;15.77;;;4.87;;
26040;SDS011;13816;53.628;9.950;2023-06-01T05:36:44;19.00;;;5.30;;
26040;SDS011;13816;53.628;9.950;2023-06-01T05:39:45;12.17;;;4.73;;
26040;SDS011;13816;53.628;9.950;2023-06-01T05:42:17;15.03;;;4.97;;
26040;SDS011;13816;53.628;9.950;2023-06-01T05:44:47;18.37;;;6.37;;
26040;SDS011;13816;53.628;9.950;2023-06-01T05:47:15;26.33;;;5.23;;
26040;SDS011;13816;53.628;9.950;2023-06-01T05:49:58;14.97;;;5.20;;
26040;SDS011;13816;53.628;9.950;2023-06-01T05:52:29;20.57;;;8.50;;
26040;SDS011;13816;53.628;9.950;2023-06-01T05:54:57;20.30;;;6.03;;
26040;SDS011;13816;53.628;9.950;2023-06-01T05:58:07;17.80;;;4.60;;
26040;SDS011;13816;53.628;9.950;2023-06-01T06:00:37;14.00;;;5.13;;
26040;SDS011;13816;53.628;9.950;2023-06-01T06:03:09;18.13;;;5.77;;
26040;SDS011;13816;53.628;9.950;2023-06-01T06:05:43;20.53;;;5.17;;
26040;SDS011;13816;53.628;9.950;2023-06-01T06:08:15;10.27;;;4.20;;
26040;SDS011;13816;53.628;9.950;2023-06-01T06:10:46;15.63;;;4.77;;
26040;SDS011;13816;53.628;9.950;2023-06-01T06:13:32;14.47;;;5.07;;
26040;SDS011;13816;53.628;9.950;2023-06-01T06:16:11;11.60;;;4.97;;
26040;SDS011;13816;53.628;9.950;2023-06-01T06:18:48;15.67;;;4.90;;
26040;SDS011;13816;53.628;9.950;2023-06-01T06:21:22;10.13;;;4.77;;
26040;SDS011;13816;53.628;9.950;2023-06-01T06:24:19;12.50;;;4.90;;
26040;SDS011;13816;53.628;9.950;2023-06-01T06:26:55;19.27;;;4.90;;
26040;SDS011;13816;53.628;9.950;2023-06-01T06:29:34;15.13;;;4.80;;
26040;SDS011;13816;53.628;9.950;2023-06-01T06:32:10;17.10;;;5.20;;
26040;SDS011;13816;53.628;9.950;2023-06-01T06:34:54;12.70;;;4.90;;
26040;SDS011;13816;53.628;9.950;2023-06-01T06:37:43;16.67;;;4.67;;
26040;SDS011;13816;53.628;9.950;2023-06-01T06:40:23;21.63;;;5.70;;
26040;SDS011;13816;53.628;9.950;2023-06-01T06:43:23;13.10;;;4.87;;
26040;SDS011;13816;53.628;9.950;2023-06-01T06:46:08;15.53;;;5.00;;
26040;SDS011;13816;53.628;9.950;2023-06-01T06:48:47;18.40;;;5.00;;
26040;SDS011;13816;53.628;9.950;2023-06-01T06:51:22;19.00;;;4.60;;
26040;SDS011;13816;53.628;9.950;2023-06-01T06:53:56;14.53;;;4.77;;
26040;SDS011;13816;53.628;9.950;2023-06-01T06:56:32;14.70;;;4.70;;
26040;SDS011;13816;53.628;9.950;2023-06-01T06:59:10;17.90;;;4.30;;
26040;SDS011;13816;53.628;9.950;2023-06-01T07:01:46;15.60;;;4.17;;
26040;SDS011;13816;53.628;9.950;2023-06-01T07:04:22;13.70;;;4.07;;
26040;SDS011;13816;53.628;9.950;2023-06-01T07:06:58;12.93;;;4.10;;
26040;SDS011;13816;53.628;9.950;2023-06-01T07:09:30;10.77;;;3.97;;
26040;SDS011;13816;53.628;9.950;2023-06-01T07:12:07;12.10;;;2.93;;
26040;SDS011;13816;53.628;9.950;2023-06-01T07:14:48;8.47;;;2.87;;
26040;SDS011;13816;53.628;9.950;2023-06-01T07:17:22;10.63;;;3.90;;
26040;SDS011;13816;53.628;9.950;2023-06-01T07:19:57;13.00;;;4.30;;
26040;SDS011;13816;53.628;9.950;2023-06-01T07:22:35;11.73;;;3.37;;
26040;SDS011;13816;53.628;9.950;2023-06-01T07:25:12;16.27;;;4.77;;
26040;SDS011;13816;53.628;9.950;2023-06-01T07:27:40;15.07;;;3.67;;
26040;SDS011;13816;53.628;9.950;2023-06-01T07:30:16;11.27;;;3.33;;
26040;SDS011;13816;53.628;9.950;2023-06-01T07:32:47;8.80;;;3.20;;
26040;SDS011;13816;53.628;9.950;2023-06-01T07:35:20;10.10;;;3.47;;
26040;SDS011;13816;53.628;9.950;2023-06-01T07:37:58;12.97;;;3.50;;
26040;SDS011;13816;53.628;9.950;2023-06-01T07:40:36;9.57;;;3.50;;
26040;SDS011;13816;53.628;9.950;2023-06-01T07:43:10;14.17;;;3.57;;
26040;SDS011;13816;53.628;9.950;2023-06-01T07:45:46;10.43;;;3.50;;
26040;SDS011;13816;53.628;9.950;2023-06-01T07:48:23;10.33;;;3.50;;
26040;SDS011;13816;53.628;9.950;2023-06-01T07:50:56;14.43;;;4.17;;
26040;SDS011;13816;53.628;9.950;2023-06-01T07:53:31;9.00;;;3.80;;
26040;SDS011;13816;53.628;9.950;2023-06-01T07:56:07;13.47;;;4.10;;
26040;SDS011;13816;53.628;9.950;2023-06-01T07:58:38;12.10;;;4.07;;
26040;SDS011;13816;53.628;9.950;2023-06-01T08:01:10;8.93;;;3.30;;
26040;SDS011;13816;53.628;9.950;2023-06-01T08:03:41;13.50;;;3.60;;
26040;SDS011;13816;53.628;9.950;2023-06-01T08:06:17;15.63;;;3.93;;
26040;SDS011;13816;53.628;9.950;2023-06-01T08:08:47;12.23;;;4.03;;
26040;SDS011;13816;53.628;9.950;2023-06-01T08:11:18;21.43;;;4.63;;
26040;SDS011;13816;53.628;9.950;2023-06-01T08:13:53;12.77;;;4.40;;
26040;SDS011;13816;53.628;9.950;2023-06-01T08:16:22;24.97;;;4.93;;
26040;SDS011;13816;53.628;9.950;2023-06-01T08:18:53;12.10;;;4.90;;
26040;SDS011;13816;53.628;9.950;2023-06-01T08:21:26;10.70;;;4.47;;
26040;SDS011;13816;53.628;9.950;2023-06-01T08:23:59;11.57;;;4.60;;
26040;SDS011;13816;53.628;9.950;2023-06-01T08:26:28;18.57;;;4.50;;
26040;SDS011;13816;53.628;9.950;2023-06-01T08:28:56;22.90;;;4.33;;
26040;SDS011;13816;53.628;9.950;2023-06-01T08:31:26;13.03;;;3.90;;
26040;SDS011;13816;53.628;9.950;2023-06-01T08:33:54;15.27;;;5.37;;
26040;SDS011;13816;53.628;9.950;2023-06-01T08:36:23;14.57;;;4.30;;
26040;SDS011;13816;53.628;9.950;2023-06-01T08:38:50;17.10;;;3.70;;
26040;SDS011;13816;53.628;9.950;2023-06-01T08:43:53;13.63;;;3.90;;
26040;SDS011;13816;53.628;9.950;2023-06-01T08:46:34;19.07;;;5.50;;
26040;SDS011;13816;53.628;9.950;2023-06-01T08:49:11;10.43;;;4.20;;
26040;SDS011;13816;53.628;9.950;2023-06-01T08:51:51;15.53;;;4.97;;
26040;SDS011;13816;53.628;9.950;2023-06-01T08:54:23;11.83;;;4.53;;
26040;SDS011;13816;53.628;9.950;2023-06-01T08:56:59;12.37;;;3.93;;
26040;SDS011;13816;53.628;9.950;2023-06-01T08:59:34;15.57;;;4.13;;
26040;SDS011;13816;53.628;9.950;2023-06-01T09:02:07;11.83;;;4.40;;
26040;SDS011;13816;53.628;9.950;2023-06-01T09:04:39;16.33;;;3.70;;
26040;SDS011;13816;53.628;9.950;2023-06-01T09:07:09;12.60;;;4.20;;
26040;SDS011;13816;53.628;9.950;2023-06-01T09:09:36;18.70;;;4.33;;
26040;SDS011;13816;53.628;9.950;2023-06-01T09:12:18;13.33;;;3.77;;
26040;SDS011;13816;53.628;9.950;2023-06-01T09:15:18;12.20;;;4.07;;
26040;SDS011;13816;53.628;9.950;2023-06-01T09:18:07;12.53;;;4.20;;
26040;SDS011;13816;53.628;9.950;2023-06-01T09:20:41;18.37;;;4.23;;
26040;SDS011;13816;53.628;9.950;2023-06-01T09:23:28;12.40;;;4.70;;
26040;SDS011;13816;53.628;9.950;2023-06-01T09:26:25;14.33;;;3.87;;
26040;SDS011;13816;53.628;9.950;2023-06-01T09:29:00;10.67;;;3.80;;
26040;SDS011;13816;53.628;9.950;2023-06-01T09:31:44;17.13;;;4.23;;
26040;SDS011;13816;53.628;9.950;2023-06-01T09:34:19;12.57;;;4.40;;
26040;SDS011;13816;53.628;9.950;2023-06-01T09:37:10;16.63;;;4.33;;
26040;SDS011;13816;53.628;9.950;2023-06-01T09:39:47;13.27;;;4.07;;
26040;SDS011;13816;53.628;9.950;2023-06-01T09:42:33;13.40;;;5.00;;
26040;SDS011;13816;53.628;9.950;2023-06-01T09:45:14;15.93;;;4.47;;
26040;SDS011;13816;53.628;9.950;2023-06-01T09:47:49;11.57;;;3.90;;
26040;SDS011;13816;53.628;9.950;2023-06-01T09:50:33;17.83;;;4.77;;
26040;SDS011;13816;53.628;9.950;2023-06-01T09:53:10;13.40;;;4.40;;
26040;SDS011;13816;53.628;9.950;2023-06-01T09:56:01;9.60;;;4.23;;
26040;SDS011;13816;53.628;9.950;2023-06-01T09:58:58;14.67;;;4.43;;
26040;SDS011;13816;53.628;9.950;2023-06-01T10:01:38;18.30;;;3.83;;
26040;SDS011;13816;53.628;9.950;2023-06-01T10:04:23;21.83;;;4.80;;
26040;SDS011;13816;53.628;9.950;2023-06-01T10:06:57;18.33;;;4.60;;
26040;SDS011;13816;53.628;9.950;2023-06-01T10:13:09;11.13;;;3.00;;
26040;SDS011;13816;53.628;9.950;2023-06-01T10:15:40;14.13;;;4.13;;
26040;SDS011;13816;53.628;9.950;2023-06-01T10:18:16;10.40;;;4.10;;
26040;SDS011;13816;53.628;9.950;2023-06-01T10:20:47;11.67;;;3.73;;
26040;SDS011;13816;53.628;9.950;2023-06-01T10:23:27;16.43;;;4.13;;
26040;SDS011;13816;53.628;9.950;2023-06-01T10:26:05;11.00;;;3.93;;
26040;SDS011;13816;53.628;9.950;2023-06-01T10:28:36;11.73;;;3.73;;
26040;SDS011;13816;53.628;9.950;2023-06-01T10:33:51;10.20;;;3.43;;
26040;SDS011;13816;53.628;9.950;2023-06-01T10:37:09;10.57;;;3.00;;
26040;SDS011;13816;53.628;9.950;2023-06-01T10:39:25;15.60;;;4.43;;
26040;SDS011;13816;53.628;9.950;2023-06-01T10:42:35;20.27;;;4.50;;
26040;SDS011;13816;53.628;9.950;2023-06-01T10:44:54;14.07;;;3.60;;
26040;SDS011;13816;53.628;9.950;2023-06-01T10:50:06;11.47;;;3.43;;
26040;SDS011;13816;53.628;9.950;2023-06-01T10:52:43;12.60;;;3.70;;
26040;SDS011;13816;53.628;9.950;2023-06-01T10:57:45;16.53;;;3.70;;
26040;SDS011;13816;53.628;9.950;2023-06-01T11:00:14;14.20;;;4.23;;
26040;SDS011;13816;53.628;9.950;2023-06-01T11:02:43;9.60;;;3.23;;
26040;SDS011;13816;53.628;9.950;2023-06-01T11:08:02;12.43;;;2.83;;
26040;SDS011;13816;53.628;9.950;2023-06-01T11:11:13;15.67;;;3.50;;
26040;SDS011;13816;53.628;9.950;2023-06-01T11:13:23;10.43;;;2.90;;
26040;SDS011;13816;53.628;9.950;2023-06-01T11:23:59;16.73;;;3.70;;
26040;SDS011;13816;53.628;9.950;2023-06-01T11:26:41;17.20;;;4.10;;
26040;SDS011;13816;53.628;9.950;2023-06-01T11:29:21;11.87;;;3.60;;
26040;SDS011;13816;53.628;9.950;2023-06-01T11:34:32;20.07;;;4.10;;
26040;SDS011;13816;53.628;9.950;2023-06-01T11:37:20;13.50;;;3.30;;
26040;SDS011;13816;53.628;9.950;2023-06-01T11:39:47;11.00;;;4.10;;
26040;SDS011;13816;53.628;9.950;2023-06-01T11:42:17;11.90;;;3.03;;
26040;SDS011;13816;53.628;9.950;2023-06-01T11:44:58;14.90;;;3.23;;
26040;SDS011;13816;53.628;9.950;2023-06-01T11:47:29;11.50;;;2.80;;
26040;SDS011;13816;53.628;9.950;2023-06-01T11:49:57;17.50;;;3.83;;
26040;SDS011;13816;53.628;9.950;2023-06-01T11:52:25;11.63;;;3.20;;
26040;SDS011;13816;53.628;9.950;2023-06-01T11:54:52;10.93;;;3.30;;
26040;SDS011;13816;53.628;9.950;2023-06-01T11:57:20;9.40;;;3.47;;
26040;SDS011;13816;53.628;9.950;2023-06-01T11:59:49;14.63;;;2.87;;
26040;SDS011;13816;53.628;9.950;2023-06-01T12:07:26;11.70;;;3.23;;
26040;SDS011;13816;53.628;9.950;2023-06-01T12:10:03;9.40;;;3.30;;
26040;SDS011;13816;53.628;9.950;2023-06-01T12:12:35;16.77;;;3.10;;
26040;SDS011;13816;53.628;9.950;2023-06-01T12:15:11;8.67;;;2.87;;
26040;SDS011;13816;53.628;9.950;2023-06-01T12:17:50;16.03;;;3.00;;
26040;SDS011;13816;53.628;9.950;2023-06-01T12:23:16;21.80;;;3.50;;
26040;SDS011;13816;53.628;9.950;2023-06-01T12:25:50;15.07;;;3.93;;
26040;SDS011;13816;53.628;9.950;2023-06-01T12:28:18;35.37;;;12.87;;
26040;SDS011;13816;53.628;9.950;2023-06-01T12:31:11;15.00;;;3.50;;
26040;SDS011;13816;53.628;9.950;2023-06-01T12:33:43;8.50;;;2.20;;
26040;SDS011;13816;53.628;9.950;2023-06-01T12:36:36;19.10;;;3.40;;
26040;SDS011;13816;53.628;9.950;2023-06-01T12:39:06;18.23;;;3.03;;
26040;SDS011;13816;53.628;9.950;2023-06-01T12:42:12;19.97;;;2.90;;
26040;SDS011;13816;53.628;9.950;2023-06-01T12:44:46;10.80;;;2.43;;
26040;SDS011;13816;53.628;9.950;2023-06-01T12:47:21;12.20;;;2.83;;
26040;SDS011;13816;53.628;9.950;2023-06-01T12:50:14;11.30;;;2.60;;
26040;SDS011;13816;53.628;9.950;2023-06-01T12:52:47;23.00;;;3.20;;
26040;SDS011;13816;53.628;9.950;2023-06-01T12:55:25;8.93;;;2.93;;
26040;SDS011;13816;53.628;9.950;2023-06-01T12:57:55;25.57;;;3.20;;
26040;SDS011;13816;53.628;9.950;2023-06-01T13:00:26;14.53;;;2.97;;
26040;SDS011;13816;53.628;9.950;2023-06-01T13:03:25;15.07;;;3.43;;
26040;SDS011;13816;53.628;9.950;2023-06-01T13:05:59;13.73;;;2.67;;
26040;SDS011;13816;53.628;9.950;2023-06-01T13:08:33;11.37;;;3.17;;
26040;SDS011;13816;53.628;9.950;2023-06-01T13:11:09;19.20;;;3.40;;
26040;SDS011;13816;53.628;9.950;2023-06-01T13:13:36;13.60;;;2.83;;
26040;SDS011;13816;53.628;9.950;2023-06-01T13:16:06;13.90;;;2.40;;
26040;SDS011;13816;53.628;9.950;2023-06-01T13:18:45;9.50;;;2.67;;
26040;SDS011;13816;53.628;9.950;2023-06-01T13:21:29;8.47;;;2.70;;
26040;SDS011;13816;53.628;9.950;2023-06-01T13:24:12;18.60;;;3.50;;
26040;SDS011;13816;53.628;9.950;2023-06-01T13:26:46;12.50;;;2.87;;
26040;SDS011;13816;53.628;9.950;2023-06-01T13:29:17;23.90;;;3.87;;
26040;SDS011;13816;53.628;9.950;2023-06-01T13:31:45;16.83;;;3.43;;
26040;SDS011;13816;53.628;9.950;2023-06-01T13:34:15;21.83;;;3.47;;
26040;SDS011;13816;53.628;9.950;2023-06-01T13:36:52;18.47;;;3.67;;
26040;SDS011;13816;53.628;9.950;2023-06-01T13:39:23;18.60;;;3.47;;
26040;SDS011;13816;53.628;9.950;2023-06-01T13:42:01;14.43;;;3.50;;
26040;SDS011;13816;53.628;9.950;2023-06-01T13:44:39;13.97;;;2.40;;
26040;SDS011;13816;53.628;9.950;2023-06-01T13:47:12;23.10;;;3.47;;
26040;SDS011;13816;53.628;9.950;2023-06-01T13:49:57;15.37;;;3.87;;
26040;SDS011;13816;53.628;9.950;2023-06-01T13:52:25;14.20;;;2.85;;
26040;SDS011;13816;53.628;9.950;2023-06-01T13:54:54;20.80;;;3.20;;
26040;SDS011;13816;53.628;9.950;2023-06-01T13:57:22;8.40;;;2.67;;
26040;SDS011;13816;53.628;9.950;2023-06-01T13:59:51;17.57;;;3.30;;
26040;SDS011;13816;53.628;9.950;2023-06-01T14:02:19;16.90;;;3.00;;
26040;SDS011;13816;53.628;9.950;2023-06-01T14:05:03;14.70;;;2.70;;
26040;SDS011;13816;53.628;9.950;2023-06-01T14:07:43;15.00;;;2.93;;
26040;SDS011;13816;53.628;9.950;2023-06-01T14:10:21;13.93;;;2.80;;
26040;SDS011;13816;53.628;9.950;2023-06-01T14:12:59;10.90;;;2.80;;
26040;SDS011;13816;53.628;9.950;2023-06-01T14:15:39;13.80;;;2.97;;
26040;SDS011;13816;53.628;9.950;2023-06-01T14:18:33;11.93;;;3.10;;
26040;SDS011;13816;53.628;9.950;2023-06-01T14:21:15;12.13;;;2.77;;
26040;SDS011;13816;53.628;9.950;2023-06-01T14:23:58;12.30;;;3.10;;
26040;SDS011;13816;53.628;9.950;2023-06-01T14:26:36;12.20;;;3.17;;
26040;SDS011;13816;53.628;9.950;2023-06-01T14:29:16;11.33;;;2.90;;
26040;SDS011;13816;53.628;9.950;2023-06-01T14:31:58;11.17;;;2.67;;
26040;SDS011;13816;53.628;9.950;2023-06-01T14:34:38;20.83;;;3.67;;
26040;SDS011;13816;53.628;9.950;2023-06-01T14:37:17;12.63;;;2.93;;
26040;SDS011;13816;53.628;9.950;2023-06-01T14:39:51;15.43;;;3.50;;
26040;SDS011;13816;53.628;9.950;2023-06-01T14:42:27;18.67;;;3.13;;
26040;SDS011;13816;53.628;9.950;2023-06-01T14:44:58;19.73;;;4.20;;
26040;SDS011;13816;53.628;9.950;2023-06-01T14:47:32;17.20;;;3.30;;
26040;SDS011;13816;53.628;9.950;2023-06-01T14:50:04;18.40;;;4.33;;
26040;SDS011;13816;53.628;9.950;2023-06-01T14:52:40;18.73;;;3.97;;
26040;SDS011;13816;53.628;9.950;2023-06-01T14:55:13;15.97;;;3.90;;
26040;SDS011;13816;53.628;9.950;2023-06-01T14:57:42;17.30;;;3.50;;
26040;SDS011;13816;53.628;9.950;2023-06-01T15:00:13;24.87;;;4.07;;
26040;SDS011;13816;53.628;9.950;2023-06-01T15:02:40;13.53;;;3.47;;
26040;SDS011;13816;53.628;9.950;2023-06-01T15:05:08;11.40;;;3.27;;
26040;SDS011;13816;53.628;9.950;2023-06-01T15:10:31;21.63;;;3.97;;
26040;SDS011;13816;53.628;9.950;2023-06-01T15:13:12;20.90;;;4.07;;
26040;SDS011;13816;53.628;9.950;2023-06-01T15:16:37;18.50;;;3.47;;
26040;SDS011;13816;53.628;9.950;2023-06-01T15:19:20;24.07;;;4.10;;
26040;SDS011;13816;53.628;9.950;2023-06-01T15:21:53;16.77;;;3.37;;
26040;SDS011;13816;53.628;9.950;2023-06-01T15:24:29;15.60;;;4.10;;
26040;SDS011;13816;53.628;9.950;2023-06-01T15:27:12;21.77;;;4.53;;
26040;SDS011;13816;53.628;9.950;2023-06-01T15:29:43;14.93;;;3.73;;
26040;SDS011;13816;53.628;9.950;2023-06-01T15:32:28;20.43;;;4.37;;
26040;SDS011;13816;53.628;9.950;2023-06-01T15:35:00;26.13;;;3.50;;
26040;SDS011;13816;53.628;9.950;2023-06-01T15:37:34;20.77;;;4.73;;
26040;SDS011;13816;53.628;9.950;2023-06-01T15:40:18;20.60;;;4.17;;
26040;SDS011;13816;53.628;9.950;2023-06-01T15:43:04;15.30;;;3.77;;
26040;SDS011;13816;53.628;9.950;2023-06-01T15:45:44;22.00;;;4.00;;
26040;SDS011;13816;53.628;9.950;2023-06-01T15:48:39;26.63;;;4.43;;
26040;SDS011;13816;53.628;9.950;2023-06-01T15:51:47;15.80;;;3.73;;
26040;SDS011;13816;53.628;9.950;2023-06-01T15:55:03;18.10;;;3.77;;
26040;SDS011;13816;53.628;9.950;2023-06-01T15:58:15;16.73;;;3.30;;
26040;SDS011;13816;53.628;9.950;2023-06-01T16:01:17;15.03;;;3.60;;
26040;SDS011;13816;53.628;9.950;2023-06-01T16:04:04;24.80;;;4.70;;
26040;SDS011;13816;53.628;9.950;2023-06-01T16:06:38;18.00;;;3.60;;
26040;SDS011;13816;53.628;9.950;2023-06-01T16:09:13;28.60;;;5.07;;
26040;SDS011;13816;53.628;9.950;2023-06-01T16:11:41;20.00;;;3.87;;
26040;SDS011;13816;53.628;9.950;2023-06-01T16:14:28;23.13;;;4.03;;
26040;SDS011;13816;53.628;9.950;2023-06-01T16:17:17;13.33;;;3.27;;
26040;SDS011;13816;53.628;9.950;2023-06-01T16:20:09;19.20;;;3.70;;
26040;SDS011;13816;53.628;9.950;2023-06-01T16:22:46;20.93;;;4.60;;
26040;SDS011;13816;53.628;9.950;2023-06-01T16:25:20;18.07;;;3.80;;
26040;SDS011;13816;53.628;9.950;2023-06-01T16:28:12;25.10;;;5.17;;
26040;SDS011;13816;53.628;9.950;2023-06-01T16:31:02;18.80;;;3.73;;
26040;SDS011;13816;53.628;9.950;2023-06-01T16:34:25;17.03;;;4.07;;
26040;SDS011;13816;53.628;9.950;2023-06-01T16:38:09;20.23;;;4.30;;
26040;SDS011;13816;53.628;9.950;2023-06-01T16:41:22;18.43;;;4.60;;
26040;SDS011;13816;53.628;9.950;2023-06-01T16:44:09;20.80;;;3.87;;
26040;SDS011;13816;53.628;9.950;2023-06-01T16:46:44;16.10;;;3.30;;
26040;SDS011;13816;53.628;9.950;2023-06-01T16:49:28;20.93;;;3.80;;